createdAt,value
2022-07-31T00:00:17.909Z,2.08
2022-07-31T00:02:44.690Z,2.08
2022-07-31T00:05:11.533Z,2.40
2022-07-31T00:07:38.140Z,2.42
2022-07-31T00:10:06.118Z,2.08
2022-07-31T00:12:34.767Z,2.08
2022-07-31T00:15:06.923Z,2.00
2022-07-31T00:17:34.616Z,2.00
2022-07-31T00:20:01.845Z,2.50
2022-07-31T00:22:28.433Z,1.80
2022-07-31T00:24:55.016Z,2.10
2022-07-31T00:27:21.706Z,1.92
2022-07-31T00:29:48.205Z,1.90
2022-07-31T00:32:15.034Z,2.00
2022-07-31T00:34:42.509Z,1.98
2022-07-31T00:37:10.536Z,1.42
2022-07-31T00:39:37.120Z,1.90
2022-07-31T00:42:03.974Z,2.45
2022-07-31T00:44:30.461Z,2.30
2022-07-31T00:46:58.048Z,2.50
2022-07-31T00:49:37.653Z,2.55
2022-07-31T00:52:05.587Z,2.22
2022-07-31T00:54:32.526Z,2.55
2022-07-31T00:56:59.063Z,2.42
2022-07-31T00:59:28.161Z,2.40
2022-07-31T01:01:55.853Z,2.05
2022-07-31T01:04:22.641Z,3.13
2022-07-31T01:06:51.911Z,2.67
2022-07-31T01:09:18.596Z,1.85
2022-07-31T01:11:51.859Z,2.47
2022-07-31T01:14:22.109Z,2.95
2022-07-31T01:16:52.369Z,2.35
2022-07-31T01:19:42.060Z,2.88
2022-07-31T01:22:35.241Z,2.10
2022-07-31T01:25:28.825Z,2.95
2022-07-31T01:28:10.295Z,2.15
2022-07-31T01:30:52.987Z,2.38
2022-07-31T01:36:07.927Z,2.47
2022-07-31T01:38:42.445Z,2.40
2022-07-31T01:41:23.519Z,2.70
2022-07-31T01:43:54.347Z,2.80
2022-07-31T01:46:22.981Z,2.35
2022-07-31T01:48:50.258Z,2.08
2022-07-31T01:51:18.661Z,2.97
2022-07-31T01:53:47.386Z,2.70
2022-07-31T01:56:17.310Z,2.25
2022-07-31T01:58:45.167Z,2.15
2022-07-31T02:01:13.895Z,2.65
2022-07-31T02:03:44.224Z,2.88
2022-07-31T02:06:18.031Z,2.50
2022-07-31T02:08:47.492Z,2.60
2022-07-31T02:11:19.053Z,2.42
2022-07-31T02:13:47.274Z,2.40
2022-07-31T02:16:16.754Z,2.30
2022-07-31T02:18:43.811Z,2.55
2022-07-31T02:21:10.558Z,2.47
2022-07-31T02:23:38.314Z,3.08
2022-07-31T02:26:07.084Z,3.08
2022-07-31T02:28:37.983Z,3.20
2022-07-31T02:31:08.133Z,3.08
2022-07-31T02:36:04.463Z,3.30
2022-07-31T02:38:33.582Z,3.13
2022-07-31T02:41:04.874Z,3.63
2022-07-31T02:43:33.292Z,2.95
2022-07-31T02:46:00.573Z,2.72
2022-07-31T02:48:27.660Z,2.95
2022-07-31T02:50:54.681Z,3.20
2022-07-31T02:53:21.804Z,2.45
2022-07-31T02:55:50.560Z,3.40
2022-07-31T02:58:17.673Z,3.22
2022-07-31T03:00:44.341Z,3.20
2022-07-31T03:03:11.079Z,3.45
2022-07-31T03:05:44.933Z,3.50
2022-07-31T03:08:11.893Z,3.13
2022-07-31T03:10:38.694Z,2.80
2022-07-31T03:13:06.571Z,3.30
2022-07-31T03:15:34.025Z,3.72
2022-07-31T03:18:01.427Z,2.83
2022-07-31T03:20:35.113Z,4.05
2022-07-31T03:23:06.688Z,3.92
2022-07-31T03:25:33.429Z,3.35
2022-07-31T03:28:00.499Z,3.63
2022-07-31T03:30:27.053Z,3.50
2022-07-31T03:32:54.888Z,3.17
2022-07-31T03:35:22.363Z,2.83
2022-07-31T03:37:49.585Z,2.58
2022-07-31T03:40:16.451Z,2.88
2022-07-31T03:42:43.530Z,3.20
2022-07-31T03:45:12.276Z,3.45
2022-07-31T03:47:40.138Z,3.30
2022-07-31T03:50:08.864Z,2.42
2022-07-31T03:52:36.717Z,3.22
2022-07-31T03:55:04.828Z,2.78
2022-07-31T03:57:43.988Z,3.58
2022-07-31T04:00:16.985Z,3.83
2022-07-31T04:02:47.384Z,3.67
2022-07-31T04:05:14.279Z,3.17
2022-07-31T04:07:40.811Z,3.63
2022-07-31T04:10:07.954Z,2.80
2022-07-31T04:12:42.664Z,3.63
2022-07-31T04:15:12.380Z,3.25
2022-07-31T04:17:38.988Z,3.60
2022-07-31T04:20:06.689Z,3.22
2022-07-31T04:22:33.977Z,3.55
2022-07-31T04:25:02.012Z,3.00
2022-07-31T04:27:28.548Z,2.97
2022-07-31T04:29:55.711Z,2.85
2022-07-31T04:32:22.376Z,2.90
2022-07-31T04:34:51.485Z,2.47
2022-07-31T04:37:18.043Z,2.85
2022-07-31T04:39:44.637Z,2.70
2022-07-31T04:42:13.856Z,2.17
2022-07-31T04:44:40.837Z,2.05
2022-07-31T04:47:07.649Z,3.05
2022-07-31T04:49:34.417Z,2.38
2022-07-31T04:52:01.407Z,2.65
2022-07-31T04:54:28.607Z,2.72
2022-07-31T04:56:59.037Z,2.28
2022-07-31T05:00:00.062Z,1.85
2022-07-31T05:02:12.438Z,2.17
2022-07-31T05:04:38.988Z,2.03
2022-07-31T05:07:05.524Z,2.05
2022-07-31T05:09:34.212Z,1.63
2022-07-31T05:12:05.107Z,2.10
2022-07-31T05:14:31.931Z,2.45
2022-07-31T05:16:58.514Z,1.60
2022-07-31T05:19:32.088Z,2.33
2022-07-31T05:22:02.298Z,1.75
2022-07-31T05:24:32.668Z,1.83
2022-07-31T05:27:03.309Z,2.25
2022-07-31T05:29:31.383Z,2.00
2022-07-31T05:31:59.402Z,1.33
2022-07-31T05:34:37.102Z,1.73
2022-07-31T05:37:06.540Z,2.17
2022-07-31T05:39:33.318Z,2.38
2022-07-31T05:42:04.429Z,1.80
2022-07-31T05:44:32.127Z,1.85
2022-07-31T05:49:26.874Z,1.75
2022-07-31T05:51:54.689Z,1.85
2022-07-31T05:54:23.320Z,1.77
2022-07-31T05:56:50.288Z,1.50
2022-07-31T05:59:16.842Z,1.77
2022-07-31T06:01:43.964Z,1.80
2022-07-31T06:04:10.791Z,1.63
2022-07-31T06:06:37.865Z,1.70
2022-07-31T06:09:05.158Z,1.90
2022-07-31T06:11:33.275Z,1.42
2022-07-31T06:14:07.185Z,1.50
2022-07-31T06:16:33.766Z,1.80
2022-07-31T06:19:00.905Z,1.55
2022-07-31T06:21:30.775Z,1.55
2022-07-31T06:24:00.818Z,1.50
2022-07-31T06:26:28.925Z,1.50
2022-07-31T06:28:56.183Z,1.58
2022-07-31T06:31:23.487Z,1.40
2022-07-31T06:33:51.505Z,1.60
2022-07-31T06:36:19.719Z,1.15
2022-07-31T06:38:46.536Z,1.92
2022-07-31T06:41:36.385Z,1.58
2022-07-31T06:44:04.942Z,1.27
2022-07-31T06:46:31.866Z,1.42
2022-07-31T06:48:58.486Z,1.27
2022-07-31T06:51:32.719Z,1.20
2022-07-31T06:54:05.895Z,1.13
2022-07-31T06:56:33.970Z,1.38
2022-07-31T06:59:01.026Z,1.52
2022-07-31T07:01:28.368Z,1.67
2022-07-31T07:03:57.548Z,1.05
2022-07-31T07:06:24.605Z,1.38
2022-07-31T07:08:51.950Z,1.60
2022-07-31T07:11:21.499Z,0.93
2022-07-31T07:13:48.096Z,1.48
2022-07-31T07:16:15.565Z,1.60
2022-07-31T07:18:43.144Z,1.38
2022-07-31T07:21:10.490Z,1.15
2022-07-31T07:23:38.347Z,1.20
2022-07-31T07:26:05.500Z,1.10
2022-07-31T07:28:32.391Z,1.25
2022-07-31T07:30:59.095Z,1.50
2022-07-31T07:33:39.560Z,1.33
2022-07-31T07:36:10.490Z,1.15
2022-07-31T07:38:48.407Z,1.33
2022-07-31T07:41:14.954Z,1.08
2022-07-31T07:43:45.144Z,1.33
2022-07-31T07:46:18.475Z,1.40
2022-07-31T07:48:45.099Z,1.08
2022-07-31T07:51:12.226Z,1.23
2022-07-31T07:53:39.210Z,1.48
2022-07-31T07:56:11.624Z,1.25
2022-07-31T07:58:38.231Z,1.15
2022-07-31T08:01:09.192Z,1.17
2022-07-31T08:03:49.172Z,1.05
2022-07-31T08:06:19.341Z,1.38
2022-07-31T08:08:47.821Z,1.35
2022-07-31T08:11:16.874Z,1.33
2022-07-31T08:13:49.665Z,0.90
2022-07-31T08:16:19.175Z,1.10
2022-07-31T08:18:45.921Z,1.27
2022-07-31T08:21:12.870Z,1.50
2022-07-31T08:23:39.426Z,1.50
2022-07-31T08:26:08.393Z,1.40
2022-07-31T08:28:36.152Z,1.42
2022-07-31T08:31:03.352Z,1.75
2022-07-31T08:33:30.255Z,1.40
2022-07-31T08:35:56.824Z,1.48
2022-07-31T08:38:23.518Z,0.95
2022-07-31T08:40:50.254Z,1.10
2022-07-31T08:43:59.953Z,1.38
2022-07-31T08:46:06.004Z,1.95
2022-07-31T08:51:02.525Z,1.38
2022-07-31T08:53:32.977Z,1.65
2022-07-31T08:55:59.900Z,1.58
2022-07-31T08:58:26.449Z,1.60
2022-07-31T09:00:53.783Z,1.75
2022-07-31T09:03:20.593Z,1.60
2022-07-31T09:05:47.119Z,1.58
2022-07-31T09:08:15.133Z,1.30
2022-07-31T09:10:47.594Z,1.60
2022-07-31T09:13:18.134Z,1.50
2022-07-31T09:15:45.236Z,1.40
2022-07-31T09:18:21.994Z,1.35
2022-07-31T09:20:58.750Z,1.45
2022-07-31T09:23:27.809Z,1.60
2022-07-31T09:28:32.986Z,1.57
2022-07-31T09:31:00.219Z,2.08
2022-07-31T09:33:28.272Z,1.10
2022-07-31T09:35:55.675Z,1.15
2022-07-31T09:38:29.021Z,1.60
2022-07-31T09:40:57.770Z,1.20
2022-07-31T09:43:31.876Z,1.55
2022-07-31T09:46:00.098Z,1.27
2022-07-31T09:48:28.554Z,1.33
2022-07-31T09:50:55.615Z,0.80
2022-07-31T09:53:22.702Z,1.10
2022-07-31T09:55:53.607Z,1.20
2022-07-31T09:58:21.138Z,1.55
2022-07-31T10:00:51.849Z,1.40
2022-07-31T10:03:19.598Z,1.08
2022-07-31T10:05:47.813Z,1.30
2022-07-31T10:08:15.034Z,1.40
2022-07-31T10:10:46.254Z,1.80
2022-07-31T10:13:15.664Z,1.50
2022-07-31T10:15:47.116Z,1.30
2022-07-31T10:18:17.305Z,1.20
2022-07-31T10:20:53.098Z,1.60
2022-07-31T10:23:27.220Z,1.48
2022-07-31T10:25:58.191Z,1.23
2022-07-31T10:28:25.400Z,1.20
2022-07-31T10:30:52.713Z,1.50
2022-07-31T10:33:42.616Z,1.15
2022-07-31T10:36:11.716Z,1.13
2022-07-31T10:39:06.897Z,1.42
2022-07-31T10:41:36.466Z,1.30
2022-07-31T10:44:10.813Z,1.30
2022-07-31T10:46:37.683Z,1.02
2022-07-31T10:49:08.749Z,1.50
2022-07-31T10:51:46.560Z,1.00
2022-07-31T10:54:14.289Z,1.00
2022-07-31T10:56:45.231Z,1.40
2022-07-31T10:59:12.172Z,1.30
2022-07-31T11:01:54.282Z,1.48
2022-07-31T11:04:32.221Z,1.25
2022-07-31T11:09:28.897Z,1.40
2022-07-31T11:11:57.051Z,0.80
2022-07-31T11:17:07.896Z,0.80
2022-07-31T11:19:42.726Z,1.20
2022-07-31T11:22:30.637Z,0.98
2022-07-31T11:25:00.687Z,1.00
2022-07-31T11:27:31.786Z,1.10
2022-07-31T11:30:12.422Z,0.98
2022-07-31T11:32:40.255Z,1.30
2022-07-31T11:35:07.572Z,1.48
2022-07-31T11:37:46.288Z,1.25
2022-07-31T11:40:22.071Z,1.60
2022-07-31T11:43:04.678Z,1.07
2022-07-31T11:45:53.011Z,1.33
2022-07-31T11:48:26.522Z,1.05
2022-07-31T11:50:54.566Z,1.88
2022-07-31T11:53:21.459Z,1.25
2022-07-31T11:55:53.161Z,1.27
2022-07-31T11:58:21.858Z,1.60
2022-07-31T12:00:49.253Z,1.48
2022-07-31T12:03:17.786Z,1.27
2022-07-31T12:05:48.608Z,1.25
2022-07-31T12:08:16.096Z,1.30
2022-07-31T12:10:43.506Z,1.40
2022-07-31T12:13:17.566Z,0.88
2022-07-31T12:16:04.970Z,1.15
2022-07-31T12:18:52.485Z,1.25
2022-07-31T12:21:20.228Z,1.23
2022-07-31T12:23:51.605Z,1.60
2022-07-31T12:26:22.982Z,1.83
2022-07-31T12:29:11.994Z,1.60
2022-07-31T12:31:47.590Z,1.50
2022-07-31T12:34:40.095Z,1.10
2022-07-31T12:37:11.443Z,1.20
2022-07-31T12:39:59.725Z,1.38
2022-07-31T12:42:30.874Z,1.48
2022-07-31T12:45:18.333Z,1.65
2022-07-31T12:47:51.195Z,1.00
2022-07-31T12:50:19.017Z,1.05
2022-07-31T12:52:45.561Z,2.30
2022-07-31T12:55:12.234Z,0.82
2022-07-31T12:57:44.647Z,1.55
2022-07-31T13:00:24.827Z,1.13
2022-07-31T13:02:53.038Z,1.55
2022-07-31T13:05:20.863Z,1.20
2022-07-31T13:07:47.911Z,0.90
2022-07-31T13:10:23.823Z,0.95
2022-07-31T13:12:52.155Z,0.82
2022-07-31T13:15:22.600Z,1.40
2022-07-31T13:17:50.519Z,1.00
2022-07-31T13:20:18.105Z,1.02
2022-07-31T13:22:44.696Z,0.85
2022-07-31T13:25:11.260Z,0.98
2022-07-31T13:27:38.000Z,0.95
2022-07-31T13:30:05.325Z,0.90
2022-07-31T13:32:31.994Z,1.10
2022-07-31T13:35:26.546Z,1.10
2022-07-31T13:37:46.926Z,1.38
2022-07-31T13:40:14.505Z,0.98
2022-07-31T13:42:41.001Z,1.00
2022-07-31T13:45:08.825Z,0.90
2022-07-31T13:47:50.491Z,1.00
2022-07-31T13:50:20.879Z,1.00
2022-07-31T13:55:13.826Z,1.13
2022-07-31T13:57:40.352Z,0.88
2022-07-31T14:00:07.721Z,1.15
2022-07-31T14:02:34.581Z,1.02
2022-07-31T14:05:01.199Z,1.08
2022-07-31T14:07:45.049Z,1.00
2022-07-31T14:10:14.107Z,1.30
2022-07-31T14:12:43.827Z,0.85
2022-07-31T14:15:10.694Z,1.30
2022-07-31T14:17:37.257Z,1.30
2022-07-31T14:20:04.262Z,1.15
2022-07-31T14:22:32.683Z,0.80
2022-07-31T14:24:59.576Z,0.95
2022-07-31T14:27:26.126Z,1.10
2022-07-31T14:29:52.725Z,1.13
2022-07-31T14:32:21.763Z,1.30
2022-07-31T14:34:49.826Z,1.10
2022-07-31T14:37:16.680Z,1.50
2022-07-31T14:39:43.493Z,1.20
2022-07-31T14:42:10.500Z,0.90
2022-07-31T14:44:38.278Z,1.10
2022-07-31T14:47:05.123Z,1.27
2022-07-31T14:50:08.680Z,1.17
2022-07-31T14:52:18.509Z,1.45
2022-07-31T14:54:45.071Z,1.30
2022-07-31T14:57:11.769Z,1.13
2022-07-31T14:59:38.462Z,1.33
2022-07-31T15:02:05.594Z,1.30
2022-07-31T15:04:32.340Z,1.40
2022-07-31T15:07:19.065Z,1.20
2022-07-31T15:09:47.280Z,1.10
2022-07-31T15:12:16.866Z,1.17
2022-07-31T15:14:46.650Z,1.35
2022-07-31T15:17:13.176Z,1.30
2022-07-31T15:19:39.853Z,1.30
2022-07-31T15:22:10.643Z,1.02
2022-07-31T15:24:49.325Z,1.05
2022-07-31T15:27:18.130Z,1.20
2022-07-31T15:30:05.126Z,0.70
2022-07-31T15:32:31.420Z,0.90
2022-07-31T15:34:57.931Z,1.00
2022-07-31T15:37:24.906Z,1.02
2022-07-31T15:40:01.505Z,1.17
2022-07-31T15:42:34.567Z,1.10
2022-07-31T15:45:01.266Z,1.00
2022-07-31T15:47:27.853Z,1.05
2022-07-31T15:49:54.437Z,1.27
2022-07-31T15:52:21.045Z,0.80
2022-07-31T15:54:51.565Z,1.30
2022-07-31T15:57:20.165Z,0.88
2022-07-31T15:59:46.768Z,1.40
2022-07-31T16:02:13.356Z,1.70
2022-07-31T16:04:51.435Z,1.38
2022-07-31T16:08:31.293Z,0.85
2022-07-31T16:10:16.204Z,1.10
2022-07-31T16:12:47.471Z,1.42
2022-07-31T16:15:15.242Z,1.00
2022-07-31T16:17:43.098Z,0.90
2022-07-31T16:20:12.816Z,0.98
2022-07-31T16:22:41.338Z,1.10
2022-07-31T16:25:09.948Z,1.13
2022-07-31T16:27:37.467Z,1.17
2022-07-31T16:30:05.686Z,1.10
2022-07-31T16:32:32.660Z,1.02
2022-07-31T16:35:01.265Z,1.38
2022-07-31T16:37:51.234Z,2.10
2022-07-31T16:40:28.610Z,1.80
2022-07-31T16:43:49.626Z,2.08
2022-07-31T16:45:51.794Z,2.50
2022-07-31T16:48:18.459Z,1.50
2022-07-31T16:50:45.016Z,1.13
2022-07-31T16:54:12.762Z,1.15
2022-07-31T16:56:02.015Z,1.30
2022-07-31T16:58:29.162Z,1.67
2022-07-31T17:00:57.183Z,1.50
2022-07-31T17:04:01.461Z,1.38
2022-07-31T17:06:11.345Z,1.52
2022-07-31T17:08:38.284Z,1.30
2022-07-31T17:11:05.329Z,1.40
2022-07-31T17:13:32.487Z,1.60
2022-07-31T17:15:58.981Z,1.23
2022-07-31T17:18:26.176Z,1.15
2022-07-31T17:20:55.654Z,1.45
2022-07-31T17:23:43.364Z,1.38
2022-07-31T17:26:21.233Z,1.17
2022-07-31T17:28:51.264Z,1.17
2022-07-31T17:31:18.987Z,1.30
2022-07-31T17:33:59.823Z,1.02
2022-07-31T17:36:28.071Z,1.10
2022-07-31T17:38:54.662Z,2.08
2022-07-31T17:41:25.156Z,1.45
2022-07-31T17:43:55.575Z,1.70
2022-07-31T17:46:29.984Z,1.33
2022-07-31T17:49:04.076Z,1.60
2022-07-31T17:51:30.670Z,2.20
2022-07-31T17:53:59.650Z,2.35
2022-07-31T17:56:26.675Z,2.80
2022-07-31T17:58:53.915Z,2.17
2022-07-31T18:01:24.418Z,1.63
2022-07-31T18:03:53.725Z,1.60
2022-07-31T18:06:20.240Z,1.40
2022-07-31T18:08:47.385Z,1.67
2022-07-31T18:11:13.889Z,2.63
2022-07-31T18:13:48.522Z,2.15
2022-07-31T18:16:19.236Z,1.95
2022-07-31T18:18:46.191Z,1.30
2022-07-31T18:21:13.376Z,1.98
2022-07-31T18:23:43.687Z,1.38
2022-07-31T18:26:14.565Z,1.38
2022-07-31T18:28:41.414Z,1.60
2022-07-31T18:31:24.236Z,1.58
2022-07-31T18:33:54.490Z,7.70
2022-07-31T18:36:21.793Z,4.45
2022-07-31T18:38:48.760Z,3.15
2022-07-31T18:41:15.277Z,11.68
2022-07-31T18:43:44.441Z,4.00
2022-07-31T18:46:10.927Z,2.35
2022-07-31T18:48:37.575Z,1.85
2022-07-31T18:51:05.480Z,3.83
2022-07-31T18:53:33.319Z,3.67
2022-07-31T18:56:00.525Z,2.95
2022-07-31T18:58:27.131Z,2.08
2022-07-31T19:00:55.094Z,3.78
2022-07-31T19:03:22.202Z,2.83
2022-07-31T19:05:50.475Z,2.08
2022-07-31T19:08:17.371Z,3.17
2022-07-31T19:10:43.969Z,3.05
2022-07-31T19:13:18.956Z,2.47
2022-07-31T19:15:47.100Z,1.85
2022-07-31T19:18:14.053Z,3.10
2022-07-31T19:21:00.420Z,2.10
2022-07-31T19:23:27.630Z,1.70
2022-07-31T19:26:03.696Z,1.30
2022-07-31T19:28:35.090Z,1.02
2022-07-31T19:31:01.987Z,1.10
2022-07-31T19:33:28.784Z,1.05
2022-07-31T19:36:01.497Z,1.20
2022-07-31T19:38:31.869Z,1.20
2022-07-31T19:40:59.606Z,1.40
2022-07-31T19:43:26.161Z,2.20
2022-07-31T19:45:59.797Z,2.28
2022-07-31T19:48:40.529Z,2.17
2022-07-31T19:51:07.294Z,1.48
2022-07-31T19:53:33.821Z,1.08
2022-07-31T19:56:05.207Z,1.10
2022-07-31T19:58:57.230Z,1.20
2022-07-31T20:01:24.093Z,1.40
2022-07-31T20:03:53.270Z,1.52
2022-07-31T20:06:21.013Z,1.70
2022-07-31T20:08:51.052Z,1.00
2022-07-31T20:11:18.189Z,1.75
2022-07-31T20:13:44.819Z,2.47
2022-07-31T20:16:11.464Z,2.03
2022-07-31T20:18:38.074Z,1.52
2022-07-31T20:21:08.004Z,1.50
2022-07-31T20:23:38.114Z,1.40
2022-07-31T20:26:10.837Z,1.27
2022-07-31T20:28:40.140Z,1.20
2022-07-31T20:31:08.269Z,1.23
2022-07-31T20:33:47.511Z,1.38
2022-07-31T20:36:25.659Z,1.20
2022-07-31T20:38:52.195Z,1.30
2022-07-31T20:41:18.813Z,1.45
2022-07-31T20:43:45.519Z,1.30
2022-07-31T20:46:12.104Z,1.27
2022-07-31T20:48:38.952Z,1.40
2022-07-31T20:51:06.920Z,1.10
2022-07-31T20:53:33.420Z,1.15
2022-07-31T20:55:59.997Z,1.35
2022-07-31T20:58:26.881Z,1.35
2022-07-31T21:00:53.898Z,1.20
2022-07-31T21:03:21.172Z,1.33
2022-07-31T21:05:48.041Z,1.20
2022-07-31T21:08:16.346Z,1.52
2022-07-31T21:10:43.270Z,1.75
2022-07-31T21:13:10.085Z,3.60
2022-07-31T21:15:42.579Z,4.13
2022-07-31T21:18:15.758Z,2.00
2022-07-31T21:20:50.617Z,1.77
2022-07-31T21:23:21.091Z,1.45
2022-07-31T21:25:47.923Z,1.20
2022-07-31T21:28:14.630Z,1.40
2022-07-31T21:30:41.367Z,1.73
2022-07-31T21:33:09.593Z,1.23
2022-07-31T21:35:37.691Z,1.70
2022-07-31T21:38:05.114Z,1.50
2022-07-31T21:40:36.018Z,1.17
2022-07-31T21:43:03.603Z,1.60
2022-07-31T21:45:50.631Z,1.63
2022-07-31T21:48:19.764Z,1.42
2022-07-31T21:50:46.578Z,1.50
2022-07-31T21:53:13.742Z,1.55
2022-07-31T21:55:40.967Z,1.50
2022-07-31T21:58:08.586Z,1.25
2022-07-31T22:00:35.873Z,1.27
2022-07-31T22:03:03.465Z,1.73
2022-07-31T22:05:49.383Z,1.92
2022-07-31T22:08:16.578Z,1.70
2022-07-31T22:10:43.594Z,1.40
2022-07-31T22:13:10.327Z,2.00
2022-07-31T22:15:58.168Z,1.67
2022-07-31T22:18:26.645Z,1.67
2022-07-31T22:20:53.780Z,1.45
2022-07-31T22:23:20.991Z,1.65
2022-07-31T22:25:49.479Z,1.30
2022-07-31T22:28:18.923Z,1.75
2022-07-31T22:30:45.807Z,1.48
2022-07-31T22:33:12.791Z,1.55
2022-07-31T22:35:40.779Z,1.75
2022-07-31T22:38:09.171Z,1.80
2022-07-31T22:40:35.753Z,1.58
2022-07-31T22:43:03.348Z,1.70
2022-07-31T22:45:30.721Z,1.63
2022-07-31T22:47:57.980Z,1.42
2022-07-31T22:50:25.257Z,1.45
2022-07-31T22:52:53.204Z,1.50
2022-07-31T22:55:20.788Z,1.60
2022-07-31T22:57:47.471Z,1.73
2022-07-31T23:00:15.382Z,1.65
2022-07-31T23:02:43.901Z,1.50
2022-07-31T23:05:10.475Z,1.75
2022-07-31T23:07:37.505Z,1.67
2022-07-31T23:10:05.925Z,1.38
2022-07-31T23:12:32.599Z,1.88
2022-07-31T23:14:59.479Z,1.88
2022-07-31T23:17:27.391Z,1.73
2022-07-31T23:19:54.976Z,1.60
2022-07-31T23:22:33.553Z,2.10
2022-07-31T23:25:08.737Z,1.80
2022-07-31T23:27:38.678Z,2.30
2022-07-31T23:32:32.199Z,2.10
2022-07-31T23:34:59.264Z,1.98
2022-07-31T23:37:26.262Z,2.03
2022-07-31T23:39:53.095Z,1.63
2022-07-31T23:42:37.941Z,2.25
2022-07-31T23:45:11.256Z,1.88
2022-07-31T23:47:45.078Z,2.17
2022-07-31T23:50:14.045Z,2.03
2022-07-31T23:52:41.899Z,2.15
2022-07-31T23:55:08.993Z,1.85
2022-07-31T23:57:36.142Z,1.60
